sensor_id;sensor_type;location;lat;lon;timestamp;temperature;humidity
34646;DHT22;20857;47.808;12.482;2023-05-07T00:01:08;12.00;99.90
34646;DHT22;20857;47.808;12.482;2023-05-07T00:03:33;11.90;99.90
34646;DHT22;20857;47.808;12.482;2023-05-07T00:05:59;11.90;99.90
34646;DHT22;20857;47.808;12.482;2023-05-07T00:08:25;11.80;99.90
34646;DHT22;20857;47.808;12.482;2023-05-07T00:10:50;11.70;99.90
34646;DHT22;20857;47.808;12.482;2023-05-07T00:15:45;11.80;99.90
34646;DHT22;20857;47.808;12.482;2023-05-07T00:18:10;11.70;99.90
34646;DHT22;20857;47.808;12.482;2023-05-07T00:20:37;11.70;99.90
34646;DHT22;20857;47.808;12.482;2023-05-07T00:23:15;11.70;99.90
34646;DHT22;20857;47.808;12.482;2023-05-07T00:29:03;11.40;99.90
34646;DHT22;20857;47.808;12.482;2023-05-07T00:34:07;11.40;99.90
34646;DHT22;20857;47.808;12.482;2023-05-07T00:36:33;11.40;99.90
34646;DHT22;20857;47.808;12.482;2023-05-07T00:38:59;11.40;99.90
34646;DHT22;20857;47.808;12.482;2023-05-07T00:41:25;11.40;99.90
34646;DHT22;20857;47.808;12.482;2023-05-07T00:43:51;11.50;99.90
34646;DHT22;20857;47.808;12.482;2023-05-07T00:46:17;11.60;99.90
34646;DHT22;20857;47.808;12.482;2023-05-07T00:48:42;12.10;99.90
34646;DHT22;20857;47.808;12.482;2023-05-07T00:51:09;11.60;99.90
34646;DHT22;20857;47.808;12.482;2023-05-07T00:53:36;11.60;99.90
34646;DHT22;20857;47.808;12.482;2023-05-07T00:56:02;11.60;99.90
34646;DHT22;20857;47.808;12.482;2023-05-07T00:58:27;11.50;99.90
34646;DHT22;20857;47.808;12.482;2023-05-07T01:00:53;11.40;99.90
34646;DHT22;20857;47.808;12.482;2023-05-07T01:03:18;11.50;99.90
34646;DHT22;20857;47.808;12.482;2023-05-07T01:05:44;11.40;99.90
34646;DHT22;20857;47.808;12.482;2023-05-07T01:08:11;11.60;99.90
34646;DHT22;20857;47.808;12.482;2023-05-07T01:10:37;12.10;99.90
34646;DHT22;20857;47.808;12.482;2023-05-07T01:13:03;11.40;99.90
34646;DHT22;20857;47.808;12.482;2023-05-07T01:15:29;12.10;99.90
34646;DHT22;20857;47.808;12.482;2023-05-07T01:17:54;11.30;99.90
34646;DHT22;20857;47.808;12.482;2023-05-07T01:20:21;11.30;99.90
34646;DHT22;20857;47.808;12.482;2023-05-07T01:22:47;11.30;99.90
34646;DHT22;20857;47.808;12.482;2023-05-07T01:25:13;11.30;99.90
34646;DHT22;20857;47.808;12.482;2023-05-07T01:27:41;11.30;99.90
34646;DHT22;20857;47.808;12.482;2023-05-07T01:30:07;11.30;99.90
34646;DHT22;20857;47.808;12.482;2023-05-07T01:32:38;11.40;99.90
34646;DHT22;20857;47.808;12.482;2023-05-07T01:35:06;11.30;99.90
34646;DHT22;20857;47.808;12.482;2023-05-07T01:37:32;11.30;99.90
34646;DHT22;20857;47.808;12.482;2023-05-07T01:39:58;11.40;99.90
34646;DHT22;20857;47.808;12.482;2023-05-07T01:42:23;11.80;99.90
34646;DHT22;20857;47.808;12.482;2023-05-07T01:44:49;11.80;99.90
34646;DHT22;20857;47.808;12.482;2023-05-07T01:47:15;11.20;99.90
34646;DHT22;20857;47.808;12.482;2023-05-07T01:49:41;11.20;99.90
34646;DHT22;20857;47.808;12.482;2023-05-07T01:52:07;11.30;99.90
34646;DHT22;20857;47.808;12.482;2023-05-07T01:54:34;11.20;99.90
34646;DHT22;20857;47.808;12.482;2023-05-07T01:57:00;11.20;99.90
34646;DHT22;20857;47.808;12.482;2023-05-07T01:59:25;12.50;99.90
34646;DHT22;20857;47.808;12.482;2023-05-07T02:01:51;11.30;99.90
34646;DHT22;20857;47.808;12.482;2023-05-07T02:04:17;11.30;99.90
34646;DHT22;20857;47.808;12.482;2023-05-07T02:06:42;11.20;99.90
34646;DHT22;20857;47.808;12.482;2023-05-07T02:09:08;12.10;99.90
34646;DHT22;20857;47.808;12.482;2023-05-07T02:11:34;13.30;99.90
34646;DHT22;20857;47.808;12.482;2023-05-07T02:13:59;11.30;99.90
34646;DHT22;20857;47.808;12.482;2023-05-07T02:16:25;11.00;99.90
34646;DHT22;20857;47.808;12.482;2023-05-07T02:18:50;11.00;99.90
34646;DHT22;20857;47.808;12.482;2023-05-07T02:21:16;10.90;99.90
34646;DHT22;20857;47.808;12.482;2023-05-07T02:23:41;12.10;99.90
34646;DHT22;20857;47.808;12.482;2023-05-07T02:26:07;11.90;99.90
34646;DHT22;20857;47.808;12.482;2023-05-07T02:28:32;10.80;99.90
34646;DHT22;20857;47.808;12.482;2023-05-07T02:31:02;10.80;99.90
34646;DHT22;20857;47.808;12.482;2023-05-07T02:33:28;12.10;99.90
34646;DHT22;20857;47.808;12.482;2023-05-07T02:35:54;10.90;99.90
34646;DHT22;20857;47.808;12.482;2023-05-07T02:38:20;10.80;99.90
34646;DHT22;20857;47.808;12.482;2023-05-07T02:40:46;10.80;99.90
34646;DHT22;20857;47.808;12.482;2023-05-07T02:43:11;10.80;99.90
34646;DHT22;20857;47.808;12.482;2023-05-07T02:45:37;10.90;99.90
34646;DHT22;20857;47.808;12.482;2023-05-07T02:48:03;10.90;99.90
34646;DHT22;20857;47.808;12.482;2023-05-07T02:50:28;10.90;99.90
34646;DHT22;20857;47.808;12.482;2023-05-07T02:52:54;10.90;99.90
34646;DHT22;20857;47.808;12.482;2023-05-07T02:55:20;10.80;99.90
34646;DHT22;20857;47.808;12.482;2023-05-07T02:57:46;10.90;99.90
34646;DHT22;20857;47.808;12.482;2023-05-07T03:00:12;10.90;99.90
34646;DHT22;20857;47.808;12.482;2023-05-07T03:02:38;10.90;99.90
34646;DHT22;20857;47.808;12.482;2023-05-07T03:05:03;11.00;99.90
34646;DHT22;20857;47.808;12.482;2023-05-07T03:07:29;11.00;99.90
34646;DHT22;20857;47.808;12.482;2023-05-07T03:09:54;11.00;99.90
34646;DHT22;20857;47.808;12.482;2023-05-07T03:12:20;11.00;99.90
34646;DHT22;20857;47.808;12.482;2023-05-07T03:14:45;10.90;99.90
34646;DHT22;20857;47.808;12.482;2023-05-07T03:17:10;11.00;99.90
34646;DHT22;20857;47.808;12.482;2023-05-07T03:19:36;10.90;99.90
34646;DHT22;20857;47.808;12.482;2023-05-07T03:22:01;10.90;99.90
34646;DHT22;20857;47.808;12.482;2023-05-07T03:24:27;10.90;99.90
34646;DHT22;20857;47.808;12.482;2023-05-07T03:26:53;10.70;99.90
34646;DHT22;20857;47.808;12.482;2023-05-07T03:29:18;10.60;99.90
34646;DHT22;20857;47.808;12.482;2023-05-07T03:31:43;10.50;99.90
34646;DHT22;20857;47.808;12.482;2023-05-07T03:34:10;10.40;99.90
34646;DHT22;20857;47.808;12.482;2023-05-07T03:36:35;11.00;99.90
34646;DHT22;20857;47.808;12.482;2023-05-07T03:39:01;10.20;99.90
34646;DHT22;20857;47.808;12.482;2023-05-07T03:41:26;10.20;99.90
34646;DHT22;20857;47.808;12.482;2023-05-07T03:43:52;10.20;99.90
34646;DHT22;20857;47.808;12.482;2023-05-07T03:46:17;10.10;99.90
34646;DHT22;20857;47.808;12.482;2023-05-07T03:48:43;10.10;99.90
34646;DHT22;20857;47.808;12.482;2023-05-07T03:51:08;10.10;99.90
34646;DHT22;20857;47.808;12.482;2023-05-07T03:53:34;10.10;99.90
34646;DHT22;20857;47.808;12.482;2023-05-07T03:55:59;10.20;99.90
34646;DHT22;20857;47.808;12.482;2023-05-07T03:58:25;10.20;99.90
34646;DHT22;20857;47.808;12.482;2023-05-07T04:00:50;10.30;99.90
34646;DHT22;20857;47.808;12.482;2023-05-07T04:03:16;10.20;99.90
34646;DHT22;20857;47.808;12.482;2023-05-07T04:05:42;10.30;99.90
34646;DHT22;20857;47.808;12.482;2023-05-07T04:08:07;10.20;99.90
34646;DHT22;20857;47.808;12.482;2023-05-07T04:10:33;10.20;99.90
34646;DHT22;20857;47.808;12.482;2023-05-07T04:12:58;10.20;99.90
34646;DHT22;20857;47.808;12.482;2023-05-07T04:15:24;10.30;99.90
34646;DHT22;20857;47.808;12.482;2023-05-07T04:17:49;10.30;99.90
34646;DHT22;20857;47.808;12.482;2023-05-07T04:20:15;10.40;99.90
34646;DHT22;20857;47.808;12.482;2023-05-07T04:22:41;10.50;99.90
34646;DHT22;20857;47.808;12.482;2023-05-07T04:25:07;10.60;99.90
34646;DHT22;20857;47.808;12.482;2023-05-07T04:27:34;10.60;99.90
34646;DHT22;20857;47.808;12.482;2023-05-07T04:30:00;10.60;99.90
34646;DHT22;20857;47.808;12.482;2023-05-07T04:32:26;10.60;99.90
34646;DHT22;20857;47.808;12.482;2023-05-07T04:34:51;10.60;99.90
34646;DHT22;20857;47.808;12.482;2023-05-07T04:37:17;10.70;99.90
34646;DHT22;20857;47.808;12.482;2023-05-07T04:39:42;10.70;99.90
34646;DHT22;20857;47.808;12.482;2023-05-07T04:42:08;10.80;99.90
34646;DHT22;20857;47.808;12.482;2023-05-07T04:44:34;10.80;99.90
34646;DHT22;20857;47.808;12.482;2023-05-07T04:47:00;10.90;99.90
34646;DHT22;20857;47.808;12.482;2023-05-07T04:49:25;11.00;99.90
34646;DHT22;20857;47.808;12.482;2023-05-07T04:51:51;11.10;99.90
34646;DHT22;20857;47.808;12.482;2023-05-07T04:54:16;11.10;99.90
34646;DHT22;20857;47.808;12.482;2023-05-07T04:56:42;11.20;99.90
34646;DHT22;20857;47.808;12.482;2023-05-07T04:59:07;11.20;99.90
34646;DHT22;20857;47.808;12.482;2023-05-07T05:01:33;11.30;99.90
34646;DHT22;20857;47.808;12.482;2023-05-07T05:03:58;11.40;99.90
34646;DHT22;20857;47.808;12.482;2023-05-07T05:06:25;11.50;99.90
34646;DHT22;20857;47.808;12.482;2023-05-07T05:08:50;11.50;99.90
34646;DHT22;20857;47.808;12.482;2023-05-07T05:11:16;11.60;99.90
34646;DHT22;20857;47.808;12.482;2023-05-07T05:13:41;11.70;99.90
34646;DHT22;20857;47.808;12.482;2023-05-07T05:16:07;11.80;99.90
34646;DHT22;20857;47.808;12.482;2023-05-07T05:18:32;11.80;99.90
34646;DHT22;20857;47.808;12.482;2023-05-07T05:20:58;11.80;99.90
34646;DHT22;20857;47.808;12.482;2023-05-07T05:23:23;11.90;99.90
34646;DHT22;20857;47.808;12.482;2023-05-07T05:25:49;12.00;99.90
34646;DHT22;20857;47.808;12.482;2023-05-07T05:28:14;12.10;99.90
34646;DHT22;20857;47.808;12.482;2023-05-07T05:30:40;12.30;99.90
34646;DHT22;20857;47.808;12.482;2023-05-07T05:33:05;12.30;99.90
34646;DHT22;20857;47.808;12.482;2023-05-07T05:35:31;12.40;99.90
34646;DHT22;20857;47.808;12.482;2023-05-07T05:37:57;12.50;99.90
34646;DHT22;20857;47.808;12.482;2023-05-07T05:40:22;12.50;99.90
34646;DHT22;20857;47.808;12.482;2023-05-07T05:42:48;12.60;99.90
34646;DHT22;20857;47.808;12.482;2023-05-07T05:45:13;12.80;99.90
34646;DHT22;20857;47.808;12.482;2023-05-07T05:47:38;13.00;99.90
34646;DHT22;20857;47.808;12.482;2023-05-07T05:50:05;13.30;99.90
34646;DHT22;20857;47.808;12.482;2023-05-07T05:52:31;13.30;99.90
34646;DHT22;20857;47.808;12.482;2023-05-07T05:54:57;13.50;99.90
34646;DHT22;20857;47.808;12.482;2023-05-07T05:57:22;13.70;99.90
34646;DHT22;20857;47.808;12.482;2023-05-07T05:59:48;13.80;99.90
34646;DHT22;20857;47.808;12.482;2023-05-07T06:02:13;13.90;99.90
34646;DHT22;20857;47.808;12.482;2023-05-07T06:04:39;14.00;99.90
34646;DHT22;20857;47.808;12.482;2023-05-07T06:07:04;14.00;99.90
34646;DHT22;20857;47.808;12.482;2023-05-07T06:09:30;14.00;99.90
34646;DHT22;20857;47.808;12.482;2023-05-07T06:11:55;14.10;99.90
34646;DHT22;20857;47.808;12.482;2023-05-07T06:14:21;14.10;99.90
34646;DHT22;20857;47.808;12.482;2023-05-07T06:16:46;14.30;99.90
34646;DHT22;20857;47.808;12.482;2023-05-07T06:19:12;14.30;99.90
34646;DHT22;20857;47.808;12.482;2023-05-07T06:21:38;14.40;99.90
34646;DHT22;20857;47.808;12.482;2023-05-07T06:24:03;14.50;99.90
34646;DHT22;20857;47.808;12.482;2023-05-07T06:26:29;14.50;99.90
34646;DHT22;20857;47.808;12.482;2023-05-07T06:28:55;14.60;99.90
34646;DHT22;20857;47.808;12.482;2023-05-07T06:31:20;14.70;99.90
34646;DHT22;20857;47.808;12.482;2023-05-07T06:33:46;14.80;99.90
34646;DHT22;20857;47.808;12.482;2023-05-07T06:36:11;14.90;99.90
34646;DHT22;20857;47.808;12.482;2023-05-07T06:38:37;15.00;99.90
34646;DHT22;20857;47.808;12.482;2023-05-07T06:41:02;15.20;99.90
34646;DHT22;20857;47.808;12.482;2023-05-07T06:43:28;15.30;99.90
34646;DHT22;20857;47.808;12.482;2023-05-07T06:45:53;15.50;99.90
34646;DHT22;20857;47.808;12.482;2023-05-07T06:48:19;15.50;99.90
34646;DHT22;20857;47.808;12.482;2023-05-07T06:50:44;15.70;99.90
34646;DHT22;20857;47.808;12.482;2023-05-07T06:53:10;15.70;99.90
34646;DHT22;20857;47.808;12.482;2023-05-07T06:55:36;15.70;99.90
34646;DHT22;20857;47.808;12.482;2023-05-07T06:58:03;15.80;99.90
34646;DHT22;20857;47.808;12.482;2023-05-07T07:00:29;16.00;99.90
34646;DHT22;20857;47.808;12.482;2023-05-07T07:02:54;16.10;99.90
34646;DHT22;20857;47.808;12.482;2023-05-07T07:05:20;16.30;99.90
34646;DHT22;20857;47.808;12.482;2023-05-07T07:07:45;16.30;99.90
34646;DHT22;20857;47.808;12.482;2023-05-07T07:10:23;16.50;99.90
34646;DHT22;20857;47.808;12.482;2023-05-07T07:12:49;16.60;99.90
34646;DHT22;20857;47.808;12.482;2023-05-07T07:15:15;16.50;99.90
34646;DHT22;20857;47.808;12.482;2023-05-07T07:17:40;16.60;99.90
34646;DHT22;20857;47.808;12.482;2023-05-07T07:20:06;16.70;99.90
34646;DHT22;20857;47.808;12.482;2023-05-07T07:22:32;16.80;99.90
34646;DHT22;20857;47.808;12.482;2023-05-07T07:24:57;16.80;99.90
34646;DHT22;20857;47.808;12.482;2023-05-07T07:27:23;16.80;99.90
34646;DHT22;20857;47.808;12.482;2023-05-07T07:29:48;17.00;99.90
34646;DHT22;20857;47.808;12.482;2023-05-07T07:32:14;17.10;99.90
34646;DHT22;20857;47.808;12.482;2023-05-07T07:34:40;17.20;99.90
34646;DHT22;20857;47.808;12.482;2023-05-07T07:37:05;17.40;99.90
34646;DHT22;20857;47.808;12.482;2023-05-07T07:39:31;17.60;99.90
34646;DHT22;20857;47.808;12.482;2023-05-07T07:41:57;17.60;99.90
34646;DHT22;20857;47.808;12.482;2023-05-07T07:44:22;17.60;99.90
34646;DHT22;20857;47.808;12.482;2023-05-07T07:46:48;17.50;99.90
34646;DHT22;20857;47.808;12.482;2023-05-07T07:49:14;17.60;99.90
34646;DHT22;20857;47.808;12.482;2023-05-07T07:51:39;17.40;99.90
34646;DHT22;20857;47.808;12.482;2023-05-07T07:54:05;17.80;99.90
34646;DHT22;20857;47.808;12.482;2023-05-07T07:56:32;17.60;99.90
34646;DHT22;20857;47.808;12.482;2023-05-07T07:58:57;17.60;99.90
34646;DHT22;20857;47.808;12.482;2023-05-07T08:01:23;17.80;99.90
34646;DHT22;20857;47.808;12.482;2023-05-07T08:03:48;17.90;99.90
34646;DHT22;20857;47.808;12.482;2023-05-07T08:06:14;17.80;99.90
34646;DHT22;20857;47.808;12.482;2023-05-07T08:08:39;18.10;99.90
34646;DHT22;20857;47.808;12.482;2023-05-07T08:11:05;18.20;99.90
34646;DHT22;20857;47.808;12.482;2023-05-07T08:13:30;18.20;99.90
34646;DHT22;20857;47.808;12.482;2023-05-07T08:15:56;18.30;99.90
34646;DHT22;20857;47.808;12.482;2023-05-07T08:18:21;18.30;99.90
34646;DHT22;20857;47.808;12.482;2023-05-07T08:20:48;18.50;99.90
34646;DHT22;20857;47.808;12.482;2023-05-07T08:23:13;18.70;99.90
34646;DHT22;20857;47.808;12.482;2023-05-07T08:25:39;18.90;99.90
34646;DHT22;20857;47.808;12.482;2023-05-07T08:28:05;19.00;99.90
34646;DHT22;20857;47.808;12.482;2023-05-07T08:30:30;18.90;99.90
34646;DHT22;20857;47.808;12.482;2023-05-07T08:32:56;18.90;99.90
34646;DHT22;20857;47.808;12.482;2023-05-07T08:35:21;18.90;99.90
34646;DHT22;20857;47.808;12.482;2023-05-07T08:37:47;18.90;99.90
34646;DHT22;20857;47.808;12.482;2023-05-07T08:40:12;19.00;99.90
34646;DHT22;20857;47.808;12.482;2023-05-07T08:42:38;19.20;99.90
34646;DHT22;20857;47.808;12.482;2023-05-07T08:45:07;19.20;99.90
34646;DHT22;20857;47.808;12.482;2023-05-07T08:47:34;19.50;99.90
34646;DHT22;20857;47.808;12.482;2023-05-07T08:50:03;19.50;99.90
34646;DHT22;20857;47.808;12.482;2023-05-07T08:52:28;19.50;99.90
34646;DHT22;20857;47.808;12.482;2023-05-07T08:54:54;19.40;99.90
34646;DHT22;20857;47.808;12.482;2023-05-07T08:57:19;19.30;99.90
34646;DHT22;20857;47.808;12.482;2023-05-07T08:59:46;19.30;99.90
34646;DHT22;20857;47.808;12.482;2023-05-07T09:02:12;19.40;99.90
34646;DHT22;20857;47.808;12.482;2023-05-07T09:04:37;19.50;99.90
34646;DHT22;20857;47.808;12.482;2023-05-07T09:07:03;19.50;99.90
34646;DHT22;20857;47.808;12.482;2023-05-07T09:09:32;19.60;99.90
34646;DHT22;20857;47.808;12.482;2023-05-07T09:11:57;19.50;99.90
34646;DHT22;20857;47.808;12.482;2023-05-07T09:14:27;19.60;99.90
34646;DHT22;20857;47.808;12.482;2023-05-07T09:16:53;19.60;99.90
34646;DHT22;20857;47.808;12.482;2023-05-07T09:19:22;19.70;99.90
34646;DHT22;20857;47.808;12.482;2023-05-07T09:21:48;19.80;99.90
34646;DHT22;20857;47.808;12.482;2023-05-07T09:24:15;20.00;99.90
34646;DHT22;20857;47.808;12.482;2023-05-07T09:26:41;20.00;99.90
34646;DHT22;20857;47.808;12.482;2023-05-07T09:29:07;20.40;99.90
34646;DHT22;20857;47.808;12.482;2023-05-07T09:31:36;20.60;99.90
34646;DHT22;20857;47.808;12.482;2023-05-07T09:34:01;20.70;99.90
34646;DHT22;20857;47.808;12.482;2023-05-07T09:36:27;20.60;99.90
34646;DHT22;20857;47.808;12.482;2023-05-07T09:38:52;20.70;99.90
34646;DHT22;20857;47.808;12.482;2023-05-07T09:41:18;21.00;99.90
34646;DHT22;20857;47.808;12.482;2023-05-07T09:43:44;21.40;99.90
34646;DHT22;20857;47.808;12.482;2023-05-07T09:46:13;21.40;99.90
34646;DHT22;20857;47.808;12.482;2023-05-07T09:48:39;21.40;99.90
34646;DHT22;20857;47.808;12.482;2023-05-07T09:53:36;21.20;99.90
34646;DHT22;20857;47.808;12.482;2023-05-07T09:56:03;21.40;99.90
34646;DHT22;20857;47.808;12.482;2023-05-07T09:58:28;21.50;99.90
34646;DHT22;20857;47.808;12.482;2023-05-07T10:00:54;21.30;99.90
34646;DHT22;20857;47.808;12.482;2023-05-07T10:03:20;21.50;99.90
34646;DHT22;20857;47.808;12.482;2023-05-07T10:05:47;21.80;99.90
34646;DHT22;20857;47.808;12.482;2023-05-07T10:08:14;21.90;99.90
34646;DHT22;20857;47.808;12.482;2023-05-07T10:10:42;22.20;99.90
34646;DHT22;20857;47.808;12.482;2023-05-07T10:13:07;22.40;99.90
34646;DHT22;20857;47.808;12.482;2023-05-07T10:15:36;22.80;99.90
34646;DHT22;20857;47.808;12.482;2023-05-07T10:18:03;22.80;99.90
34646;DHT22;20857;47.808;12.482;2023-05-07T10:20:28;22.90;99.90
34646;DHT22;20857;47.808;12.482;2023-05-07T10:22:54;23.20;99.90
34646;DHT22;20857;47.808;12.482;2023-05-07T10:25:22;23.40;99.90
34646;DHT22;20857;47.808;12.482;2023-05-07T10:27:48;23.50;99.90
34646;DHT22;20857;47.808;12.482;2023-05-07T10:32:47;23.00;99.90
34646;DHT22;20857;47.808;12.482;2023-05-07T10:35:16;22.40;99.90
34646;DHT22;20857;47.808;12.482;2023-05-07T10:37:42;22.30;99.90
34646;DHT22;20857;47.808;12.482;2023-05-07T10:40:09;22.10;99.90
34646;DHT22;20857;47.808;12.482;2023-05-07T10:42:35;22.20;99.90
34646;DHT22;20857;47.808;12.482;2023-05-07T10:45:13;22.10;99.90
34646;DHT22;20857;47.808;12.482;2023-05-07T10:50:23;22.40;99.90
34646;DHT22;20857;47.808;12.482;2023-05-07T10:53:15;22.40;99.90
34646;DHT22;20857;47.808;12.482;2023-05-07T10:55:34;22.60;99.90
34646;DHT22;20857;47.808;12.482;2023-05-07T10:58:22;22.40;99.90
34646;DHT22;20857;47.808;12.482;2023-05-07T11:00:45;22.30;99.90
34646;DHT22;20857;47.808;12.482;2023-05-07T11:03:11;22.30;99.90
34646;DHT22;20857;47.808;12.482;2023-05-07T11:05:37;22.70;99.90
34646;DHT22;20857;47.808;12.482;2023-05-07T11:08:03;23.10;99.90
34646;DHT22;20857;47.808;12.482;2023-05-07T11:10:47;23.30;99.90
34646;DHT22;20857;47.808;12.482;2023-05-07T11:13:13;23.20;99.90
34646;DHT22;20857;47.808;12.482;2023-05-07T11:15:40;22.70;99.90
34646;DHT22;20857;47.808;12.482;2023-05-07T11:18:07;22.70;99.90
34646;DHT22;20857;47.808;12.482;2023-05-07T11:25:59;23.10;99.90
34646;DHT22;20857;47.808;12.482;2023-05-07T11:28:25;23.40;99.90
34646;DHT22;20857;47.808;12.482;2023-05-07T11:30:50;23.70;99.90
34646;DHT22;20857;47.808;12.482;2023-05-07T11:33:18;23.80;99.90
34646;DHT22;20857;47.808;12.482;2023-05-07T11:35:43;23.40;99.90
34646;DHT22;20857;47.808;12.482;2023-05-07T11:38:09;23.30;99.90
34646;DHT22;20857;47.808;12.482;2023-05-07T11:40:35;23.30;99.90
34646;DHT22;20857;47.808;12.482;2023-05-07T11:43:13;23.30;99.90
34646;DHT22;20857;47.808;12.482;2023-05-07T11:45:39;23.50;99.90
34646;DHT22;20857;47.808;12.482;2023-05-07T11:48:04;23.40;99.80
34646;DHT22;20857;47.808;12.482;2023-05-07T11:50:30;23.50;99.90
34646;DHT22;20857;47.808;12.482;2023-05-07T11:52:56;23.20;99.90
34646;DHT22;20857;47.808;12.482;2023-05-07T11:55:21;23.40;99.00
34646;DHT22;20857;47.808;12.482;2023-05-07T11:57:50;23.70;99.90
34646;DHT22;20857;47.808;12.482;2023-05-07T12:00:15;23.80;99.80
34646;DHT22;20857;47.808;12.482;2023-05-07T12:02:41;24.00;99.90
34646;DHT22;20857;47.808;12.482;2023-05-07T12:05:07;24.40;97.90
34646;DHT22;20857;47.808;12.482;2023-05-07T12:07:34;24.80;98.60
34646;DHT22;20857;47.808;12.482;2023-05-07T12:10:04;25.20;97.90
34646;DHT22;20857;47.808;12.482;2023-05-07T12:12:29;25.70;96.70
34646;DHT22;20857;47.808;12.482;2023-05-07T12:14:55;25.90;97.80
34646;DHT22;20857;47.808;12.482;2023-05-07T12:17:20;24.90;98.20
34646;DHT22;20857;47.808;12.482;2023-05-07T12:19:46;25.50;99.00
34646;DHT22;20857;47.808;12.482;2023-05-07T12:22:12;26.20;96.70
34646;DHT22;20857;47.808;12.482;2023-05-07T12:27:09;26.90;96.70
34646;DHT22;20857;47.808;12.482;2023-05-07T12:29:35;26.50;95.50
34646;DHT22;20857;47.808;12.482;2023-05-07T12:32:00;26.50;96.30
34646;DHT22;20857;47.808;12.482;2023-05-07T12:34:26;26.10;95.80
34646;DHT22;20857;47.808;12.482;2023-05-07T12:36:51;25.90;97.10
34646;DHT22;20857;47.808;12.482;2023-05-07T12:39:17;25.90;96.60
34646;DHT22;20857;47.808;12.482;2023-05-07T12:41:55;25.80;96.50
34646;DHT22;20857;47.808;12.482;2023-05-07T12:44:21;26.10;97.30
34646;DHT22;20857;47.808;12.482;2023-05-07T12:46:47;25.90;96.20
34646;DHT22;20857;47.808;12.482;2023-05-07T12:49:12;25.60;97.20
34646;DHT22;20857;47.808;12.482;2023-05-07T12:51:38;25.60;96.80
34646;DHT22;20857;47.808;12.482;2023-05-07T12:54:03;25.30;96.00
34646;DHT22;20857;47.808;12.482;2023-05-07T12:56:35;25.20;97.90
34646;DHT22;20857;47.808;12.482;2023-05-07T12:59:01;24.90;98.10
34646;DHT22;20857;47.808;12.482;2023-05-07T13:01:29;24.80;97.60
34646;DHT22;20857;47.808;12.482;2023-05-07T13:04:02;24.90;97.20
34646;DHT22;20857;47.808;12.482;2023-05-07T13:06:29;24.90;97.40
34646;DHT22;20857;47.808;12.482;2023-05-07T13:08:55;24.70;97.80
34646;DHT22;20857;47.808;12.482;2023-05-07T13:11:21;24.50;96.90
34646;DHT22;20857;47.808;12.482;2023-05-07T13:13:46;24.60;97.40
34646;DHT22;20857;47.808;12.482;2023-05-07T13:16:12;24.80;98.20
34646;DHT22;20857;47.808;12.482;2023-05-07T13:18:38;25.10;97.00
34646;DHT22;20857;47.808;12.482;2023-05-07T13:21:04;25.40;97.30
34646;DHT22;20857;47.808;12.482;2023-05-07T13:23:30;25.70;98.40
34646;DHT22;20857;47.808;12.482;2023-05-07T13:25:55;25.70;97.10
34646;DHT22;20857;47.808;12.482;2023-05-07T13:28:21;25.40;98.30
34646;DHT22;20857;47.808;12.482;2023-05-07T13:30:47;25.00;97.40
34646;DHT22;20857;47.808;12.482;2023-05-07T13:33:13;24.30;98.90
34646;DHT22;20857;47.808;12.482;2023-05-07T13:35:38;24.00;98.50
34646;DHT22;20857;47.808;12.482;2023-05-07T13:38:05;23.40;99.50
34646;DHT22;20857;47.808;12.482;2023-05-07T13:40:30;23.00;98.80
34646;DHT22;20857;47.808;12.482;2023-05-07T13:42:56;23.00;99.60
34646;DHT22;20857;47.808;12.482;2023-05-07T13:45:23;24.70;97.90
34646;DHT22;20857;47.808;12.482;2023-05-07T13:47:51;24.90;98.20
34646;DHT22;20857;47.808;12.482;2023-05-07T13:50:16;25.90;98.10
34646;DHT22;20857;47.808;12.482;2023-05-07T13:52:42;27.10;96.70
34646;DHT22;20857;47.808;12.482;2023-05-07T13:55:09;27.60;96.10
34646;DHT22;20857;47.808;12.482;2023-05-07T13:57:35;27.40;95.90
34646;DHT22;20857;47.808;12.482;2023-05-07T14:00:01;26.80;95.30
34646;DHT22;20857;47.808;12.482;2023-05-07T14:02:26;26.20;96.60
34646;DHT22;20857;47.808;12.482;2023-05-07T14:04:52;25.60;97.00
34646;DHT22;20857;47.808;12.482;2023-05-07T14:07:17;25.00;98.50
34646;DHT22;20857;47.808;12.482;2023-05-07T14:09:43;24.20;98.90
34646;DHT22;20857;47.808;12.482;2023-05-07T14:12:10;23.70;98.60
34646;DHT22;20857;47.808;12.482;2023-05-07T14:14:36;23.20;99.60
34646;DHT22;20857;47.808;12.482;2023-05-07T14:17:01;23.00;99.50
34646;DHT22;20857;47.808;12.482;2023-05-07T14:19:27;22.80;99.90
34646;DHT22;20857;47.808;12.482;2023-05-07T14:21:52;22.80;99.80
34646;DHT22;20857;47.808;12.482;2023-05-07T14:24:18;22.90;99.90
34646;DHT22;20857;47.808;12.482;2023-05-07T14:26:44;23.10;99.90
34646;DHT22;20857;47.808;12.482;2023-05-07T14:29:10;23.30;99.90
34646;DHT22;20857;47.808;12.482;2023-05-07T14:31:35;23.20;99.90
34646;DHT22;20857;47.808;12.482;2023-05-07T14:34:01;23.20;99.00
34646;DHT22;20857;47.808;12.482;2023-05-07T14:36:27;23.10;99.90
34646;DHT22;20857;47.808;12.482;2023-05-07T14:38:53;23.00;99.30
34646;DHT22;20857;47.808;12.482;2023-05-07T14:41:22;22.80;99.50
34646;DHT22;20857;47.808;12.482;2023-05-07T14:43:47;22.20;99.90
34646;DHT22;20857;47.808;12.482;2023-05-07T14:46:16;22.20;99.90
34646;DHT22;20857;47.808;12.482;2023-05-07T14:48:42;22.10;99.90
34646;DHT22;20857;47.808;12.482;2023-05-07T14:51:08;22.20;99.90
34646;DHT22;20857;47.808;12.482;2023-05-07T14:53:33;22.30;99.90
34646;DHT22;20857;47.808;12.482;2023-05-07T14:55:59;22.20;99.90
34646;DHT22;20857;47.808;12.482;2023-05-07T14:58:25;22.30;99.90
34646;DHT22;20857;47.808;12.482;2023-05-07T15:00:50;22.40;99.90
34646;DHT22;20857;47.808;12.482;2023-05-07T15:03:16;22.30;99.90
34646;DHT22;20857;47.808;12.482;2023-05-07T15:05:41;22.10;99.90
34646;DHT22;20857;47.808;12.482;2023-05-07T15:08:07;22.00;99.90
34646;DHT22;20857;47.808;12.482;2023-05-07T15:10:35;21.90;99.90
34646;DHT22;20857;47.808;12.482;2023-05-07T15:13:05;21.90;99.90
34646;DHT22;20857;47.808;12.482;2023-05-07T15:15:30;21.70;99.90
34646;DHT22;20857;47.808;12.482;2023-05-07T15:17:56;21.60;99.90
34646;DHT22;20857;47.808;12.482;2023-05-07T15:20:21;21.60;99.90
34646;DHT22;20857;47.808;12.482;2023-05-07T15:22:47;21.30;99.90
34646;DHT22;20857;47.808;12.482;2023-05-07T15:25:12;21.20;99.90
34646;DHT22;20857;47.808;12.482;2023-05-07T15:27:38;21.20;99.90
34646;DHT22;20857;47.808;12.482;2023-05-07T15:30:04;21.20;99.90
34646;DHT22;20857;47.808;12.482;2023-05-07T15:32:30;21.10;99.90